sensor_id;sensor_type;location;lat;lon;timestamp;temperature;humidity
3348;DHT22;1687;49.540;8.574;2023-03-05T00:00:11;6.40;66.20
3348;DHT22;1687;49.540;8.574;2023-03-05T00:02:38;6.40;66.00
3348;DHT22;1687;49.540;8.574;2023-03-05T00:05:04;6.30;65.90
3348;DHT22;1687;49.540;8.574;2023-03-05T00:07:30;6.30;66.10
3348;DHT22;1687;49.540;8.574;2023-03-05T00:09:58;6.30;66.10
3348;DHT22;1687;49.540;8.574;2023-03-05T00:12:25;6.40;66.40
3348;DHT22;1687;49.540;8.574;2023-03-05T00:14:51;6.50;66.50
3348;DHT22;1687;49.540;8.574;2023-03-05T00:17:17;6.50;66.60
3348;DHT22;1687;49.540;8.574;2023-03-05T00:19:42;6.60;66.60
3348;DHT22;1687;49.540;8.574;2023-03-05T00:22:08;6.60;66.40
3348;DHT22;1687;49.540;8.574;2023-03-05T00:24:34;6.60;66.40
3348;DHT22;1687;49.540;8.574;2023-03-05T00:26:59;6.70;66.60
3348;DHT22;1687;49.540;8.574;2023-03-05T00:29:25;6.60;66.20
3348;DHT22;1687;49.540;8.574;2023-03-05T00:31:52;6.60;66.20
3348;DHT22;1687;49.540;8.574;2023-03-05T00:34:18;6.60;66.30
3348;DHT22;1687;49.540;8.574;2023-03-05T00:36:50;6.60;66.60
3348;DHT22;1687;49.540;8.574;2023-03-05T00:39:17;6.60;66.50
3348;DHT22;1687;49.540;8.574;2023-03-05T00:41:43;6.70;66.70
3348;DHT22;1687;49.540;8.574;2023-03-05T00:44:09;6.70;66.60
3348;DHT22;1687;49.540;8.574;2023-03-05T00:46:35;6.70;66.50
3348;DHT22;1687;49.540;8.574;2023-03-05T00:49:01;6.70;66.50
3348;DHT22;1687;49.540;8.574;2023-03-05T00:51:27;6.70;66.50
3348;DHT22;1687;49.540;8.574;2023-03-05T00:53:53;6.70;66.50
3348;DHT22;1687;49.540;8.574;2023-03-05T00:56:19;6.70;66.40
3348;DHT22;1687;49.540;8.574;2023-03-05T00:58:46;6.60;66.10
3348;DHT22;1687;49.540;8.574;2023-03-05T01:01:12;6.60;66.40
3348;DHT22;1687;49.540;8.574;2023-03-05T01:03:37;6.60;66.30
3348;DHT22;1687;49.540;8.574;2023-03-05T01:06:06;6.60;66.50
3348;DHT22;1687;49.540;8.574;2023-03-05T01:08:34;6.60;66.60
3348;DHT22;1687;49.540;8.574;2023-03-05T01:11:01;6.60;66.40
3348;DHT22;1687;49.540;8.574;2023-03-05T01:13:27;6.60;66.40
3348;DHT22;1687;49.540;8.574;2023-03-05T01:15:53;6.50;66.20
3348;DHT22;1687;49.540;8.574;2023-03-05T01:18:19;6.50;66.20
3348;DHT22;1687;49.540;8.574;2023-03-05T01:20:44;6.40;66.30
3348;DHT22;1687;49.540;8.574;2023-03-05T01:23:10;6.40;66.20
3348;DHT22;1687;49.540;8.574;2023-03-05T01:25:37;6.30;66.10
3348;DHT22;1687;49.540;8.574;2023-03-05T01:28:02;6.30;66.50
3348;DHT22;1687;49.540;8.574;2023-03-05T01:30:28;6.30;66.60
3348;DHT22;1687;49.540;8.574;2023-03-05T01:32:54;6.30;66.20
3348;DHT22;1687;49.540;8.574;2023-03-05T01:35:22;6.30;66.60
3348;DHT22;1687;49.540;8.574;2023-03-05T01:37:48;6.40;66.80
3348;DHT22;1687;49.540;8.574;2023-03-05T01:40:18;6.40;66.80
3348;DHT22;1687;49.540;8.574;2023-03-05T01:42:47;6.50;67.70
3348;DHT22;1687;49.540;8.574;2023-03-05T01:45:17;6.60;66.90
3348;DHT22;1687;49.540;8.574;2023-03-05T01:47:43;6.60;66.80
3348;DHT22;1687;49.540;8.574;2023-03-05T01:50:20;6.60;66.80
3348;DHT22;1687;49.540;8.574;2023-03-05T01:52:54;6.60;66.70
3348;DHT22;1687;49.540;8.574;2023-03-05T01:55:24;6.50;66.40
3348;DHT22;1687;49.540;8.574;2023-03-05T01:57:54;6.40;66.40
3348;DHT22;1687;49.540;8.574;2023-03-05T02:00:31;6.30;66.30
3348;DHT22;1687;49.540;8.574;2023-03-05T02:03:05;6.30;66.70
3348;DHT22;1687;49.540;8.574;2023-03-05T02:05:35;6.30;66.70
3348;DHT22;1687;49.540;8.574;2023-03-05T02:08:05;6.30;67.00
3348;DHT22;1687;49.540;8.574;2023-03-05T02:10:35;6.40;67.10
3348;DHT22;1687;49.540;8.574;2023-03-05T02:13:14;6.40;66.90
3348;DHT22;1687;49.540;8.574;2023-03-05T02:15:43;6.40;67.00
3348;DHT22;1687;49.540;8.574;2023-03-05T02:18:09;6.50;67.10
3348;DHT22;1687;49.540;8.574;2023-03-05T02:20:51;6.50;67.00
3348;DHT22;1687;49.540;8.574;2023-03-05T02:23:29;6.40;66.60
3348;DHT22;1687;49.540;8.574;2023-03-05T02:25:58;6.40;66.90
3348;DHT22;1687;49.540;8.574;2023-03-05T02:31:17;6.50;67.20
3348;DHT22;1687;49.540;8.574;2023-03-05T02:33:45;6.50;67.10
3348;DHT22;1687;49.540;8.574;2023-03-05T02:36:12;6.50;67.00
3348;DHT22;1687;49.540;8.574;2023-03-05T02:38:39;6.50;67.10
3348;DHT22;1687;49.540;8.574;2023-03-05T02:41:05;6.50;67.20
3348;DHT22;1687;49.540;8.574;2023-03-05T02:43:31;6.50;67.10
3348;DHT22;1687;49.540;8.574;2023-03-05T02:45:57;6.60;67.20
3348;DHT22;1687;49.540;8.574;2023-03-05T02:48:22;6.60;67.30
3348;DHT22;1687;49.540;8.574;2023-03-05T02:50:49;6.60;67.00
3348;DHT22;1687;49.540;8.574;2023-03-05T02:53:14;6.60;67.30
3348;DHT22;1687;49.540;8.574;2023-03-05T02:55:40;6.60;67.20
3348;DHT22;1687;49.540;8.574;2023-03-05T02:58:06;6.60;67.20
3348;DHT22;1687;49.540;8.574;2023-03-05T03:00:32;6.60;67.20
3348;DHT22;1687;49.540;8.574;2023-03-05T03:02:57;6.60;67.10
3348;DHT22;1687;49.540;8.574;2023-03-05T03:05:23;6.70;67.20
3348;DHT22;1687;49.540;8.574;2023-03-05T03:07:50;6.70;67.30
3348;DHT22;1687;49.540;8.574;2023-03-05T03:10:16;6.70;67.30
3348;DHT22;1687;49.540;8.574;2023-03-05T03:12:43;6.70;67.10
3348;DHT22;1687;49.540;8.574;2023-03-05T03:15:12;6.70;67.10
3348;DHT22;1687;49.540;8.574;2023-03-05T03:17:39;6.60;67.10
3348;DHT22;1687;49.540;8.574;2023-03-05T03:20:08;6.70;67.30
3348;DHT22;1687;49.540;8.574;2023-03-05T03:22:38;6.70;67.40
3348;DHT22;1687;49.540;8.574;2023-03-05T03:25:05;6.70;67.30
3348;DHT22;1687;49.540;8.574;2023-03-05T03:27:31;6.70;67.30
3348;DHT22;1687;49.540;8.574;2023-03-05T03:29:57;6.70;67.40
3348;DHT22;1687;49.540;8.574;2023-03-05T03:32:27;6.70;67.40
3348;DHT22;1687;49.540;8.574;2023-03-05T03:34:53;6.70;67.40
3348;DHT22;1687;49.540;8.574;2023-03-05T03:37:19;6.80;67.40
3348;DHT22;1687;49.540;8.574;2023-03-05T03:39:44;6.70;67.20
3348;DHT22;1687;49.540;8.574;2023-03-05T03:42:10;6.70;67.20
3348;DHT22;1687;49.540;8.574;2023-03-05T03:44:36;6.70;67.20
3348;DHT22;1687;49.540;8.574;2023-03-05T03:47:02;6.70;67.40
3348;DHT22;1687;49.540;8.574;2023-03-05T03:49:27;6.70;67.50
3348;DHT22;1687;49.540;8.574;2023-03-05T03:51:53;6.70;67.40
3348;DHT22;1687;49.540;8.574;2023-03-05T03:54:20;6.70;67.30
3348;DHT22;1687;49.540;8.574;2023-03-05T03:56:47;6.70;67.40
3348;DHT22;1687;49.540;8.574;2023-03-05T03:59:13;6.70;67.20
3348;DHT22;1687;49.540;8.574;2023-03-05T04:01:39;6.70;67.40
3348;DHT22;1687;49.540;8.574;2023-03-05T04:04:05;6.70;67.50
3348;DHT22;1687;49.540;8.574;2023-03-05T04:06:32;6.70;67.50
3348;DHT22;1687;49.540;8.574;2023-03-05T04:08:58;6.70;67.40
3348;DHT22;1687;49.540;8.574;2023-03-05T04:11:24;6.70;67.30
3348;DHT22;1687;49.540;8.574;2023-03-05T04:13:49;6.60;67.10
3348;DHT22;1687;49.540;8.574;2023-03-05T04:16:16;6.50;66.90
3348;DHT22;1687;49.540;8.574;2023-03-05T04:18:42;6.60;67.50
3348;DHT22;1687;49.540;8.574;2023-03-05T04:21:08;6.60;67.40
3348;DHT22;1687;49.540;8.574;2023-03-05T04:23:34;6.50;67.30
3348;DHT22;1687;49.540;8.574;2023-03-05T04:26:00;6.60;67.50
3348;DHT22;1687;49.540;8.574;2023-03-05T04:28:25;6.60;67.40
3348;DHT22;1687;49.540;8.574;2023-03-05T04:30:51;6.50;66.70
3348;DHT22;1687;49.540;8.574;2023-03-05T04:33:17;6.30;66.80
3348;DHT22;1687;49.540;8.574;2023-03-05T04:35:43;6.20;66.80
3348;DHT22;1687;49.540;8.574;2023-03-05T04:38:09;6.10;67.10
3348;DHT22;1687;49.540;8.574;2023-03-05T04:40:35;6.20;67.50
3348;DHT22;1687;49.540;8.574;2023-03-05T04:43:02;6.20;67.50
3348;DHT22;1687;49.540;8.574;2023-03-05T04:45:28;6.30;67.80
3348;DHT22;1687;49.540;8.574;2023-03-05T04:47:54;6.40;67.90
3348;DHT22;1687;49.540;8.574;2023-03-05T04:50:20;6.40;67.80
3348;DHT22;1687;49.540;8.574;2023-03-05T04:52:46;6.50;67.70
3348;DHT22;1687;49.540;8.574;2023-03-05T04:55:13;6.50;67.60
3348;DHT22;1687;49.540;8.574;2023-03-05T04:57:39;6.50;67.80
3348;DHT22;1687;49.540;8.574;2023-03-05T05:00:07;6.50;67.60
3348;DHT22;1687;49.540;8.574;2023-03-05T05:02:40;6.50;67.60
3348;DHT22;1687;49.540;8.574;2023-03-05T05:05:12;6.40;67.40
3348;DHT22;1687;49.540;8.574;2023-03-05T05:07:40;6.40;67.60
3348;DHT22;1687;49.540;8.574;2023-03-05T05:10:07;6.30;67.50
3348;DHT22;1687;49.540;8.574;2023-03-05T05:12:34;6.30;67.50
3348;DHT22;1687;49.540;8.574;2023-03-05T05:15:00;6.30;67.60
3348;DHT22;1687;49.540;8.574;2023-03-05T05:17:26;6.30;67.70
3348;DHT22;1687;49.540;8.574;2023-03-05T05:19:55;6.30;67.60
3348;DHT22;1687;49.540;8.574;2023-03-05T05:22:22;6.40;67.90
3348;DHT22;1687;49.540;8.574;2023-03-05T05:24:47;6.40;68.00
3348;DHT22;1687;49.540;8.574;2023-03-05T05:27:13;6.50;68.00
3348;DHT22;1687;49.540;8.574;2023-03-05T05:29:38;6.50;67.90
3348;DHT22;1687;49.540;8.574;2023-03-05T05:32:04;6.40;67.60
3348;DHT22;1687;49.540;8.574;2023-03-05T05:34:30;6.50;68.00
3348;DHT22;1687;49.540;8.574;2023-03-05T05:36:56;6.50;68.00
3348;DHT22;1687;49.540;8.574;2023-03-05T05:39:21;6.50;68.10
3348;DHT22;1687;49.540;8.574;2023-03-05T05:41:51;6.60;68.30
3348;DHT22;1687;49.540;8.574;2023-03-05T05:44:17;6.60;67.90
3348;DHT22;1687;49.540;8.574;2023-03-05T05:46:43;6.60;67.90
3348;DHT22;1687;49.540;8.574;2023-03-05T05:49:08;6.60;68.00
3348;DHT22;1687;49.540;8.574;2023-03-05T05:51:34;6.70;68.30
3348;DHT22;1687;49.540;8.574;2023-03-05T05:54:00;6.80;69.10
3348;DHT22;1687;49.540;8.574;2023-03-05T05:56:25;6.80;68.10
3348;DHT22;1687;49.540;8.574;2023-03-05T05:58:51;6.80;68.00
3348;DHT22;1687;49.540;8.574;2023-03-05T06:01:22;6.80;68.10
3348;DHT22;1687;49.540;8.574;2023-03-05T06:03:49;6.80;68.40
3348;DHT22;1687;49.540;8.574;2023-03-05T06:06:18;6.80;68.00
3348;DHT22;1687;49.540;8.574;2023-03-05T06:08:45;6.80;68.10
3348;DHT22;1687;49.540;8.574;2023-03-05T06:11:10;6.70;68.20
3348;DHT22;1687;49.540;8.574;2023-03-05T06:13:37;6.70;68.10
3348;DHT22;1687;49.540;8.574;2023-03-05T06:16:06;6.80;69.10
3348;DHT22;1687;49.540;8.574;2023-03-05T06:18:34;6.80;68.10
3348;DHT22;1687;49.540;8.574;2023-03-05T06:21:05;6.70;68.20
3348;DHT22;1687;49.540;8.574;2023-03-05T06:23:32;6.70;68.40
3348;DHT22;1687;49.540;8.574;2023-03-05T06:25:59;6.80;68.50
3348;DHT22;1687;49.540;8.574;2023-03-05T06:28:27;6.70;67.70
3348;DHT22;1687;49.540;8.574;2023-03-05T06:33:35;6.60;68.50
3348;DHT22;1687;49.540;8.574;2023-03-05T06:36:05;6.60;68.30
3348;DHT22;1687;49.540;8.574;2023-03-05T06:38:32;6.60;68.20
3348;DHT22;1687;49.540;8.574;2023-03-05T06:41:19;6.60;68.50
3348;DHT22;1687;49.540;8.574;2023-03-05T06:43:47;6.70;68.30
3348;DHT22;1687;49.540;8.574;2023-03-05T06:46:19;6.50;67.70
3348;DHT22;1687;49.540;8.574;2023-03-05T06:48:47;6.40;68.00
3348;DHT22;1687;49.540;8.574;2023-03-05T06:51:14;6.40;68.00
3348;DHT22;1687;49.540;8.574;2023-03-05T06:53:43;6.40;68.30
3348;DHT22;1687;49.540;8.574;2023-03-05T06:56:09;6.40;68.30
3348;DHT22;1687;49.540;8.574;2023-03-05T06:58:35;6.40;68.30
3348;DHT22;1687;49.540;8.574;2023-03-05T07:01:04;6.40;68.40
3348;DHT22;1687;49.540;8.574;2023-03-05T07:03:32;6.40;68.50
3348;DHT22;1687;49.540;8.574;2023-03-05T07:06:00;6.50;68.70
3348;DHT22;1687;49.540;8.574;2023-03-05T07:08:27;6.60;68.70
3348;DHT22;1687;49.540;8.574;2023-03-05T07:10:52;6.60;68.50
3348;DHT22;1687;49.540;8.574;2023-03-05T07:13:18;6.60;68.60
3348;DHT22;1687;49.540;8.574;2023-03-05T07:15:44;6.70;68.90
3348;DHT22;1687;49.540;8.574;2023-03-05T07:18:09;6.70;68.80
3348;DHT22;1687;49.540;8.574;2023-03-05T07:20:35;6.70;68.60
3348;DHT22;1687;49.540;8.574;2023-03-05T07:23:02;6.70;69.30
3348;DHT22;1687;49.540;8.574;2023-03-05T07:25:27;6.70;68.80
3348;DHT22;1687;49.540;8.574;2023-03-05T07:27:53;6.80;69.00
3348;DHT22;1687;49.540;8.574;2023-03-05T07:30:19;6.80;68.50
3348;DHT22;1687;49.540;8.574;2023-03-05T07:32:45;6.80;68.90
3348;DHT22;1687;49.540;8.574;2023-03-05T07:35:11;6.90;69.10
3348;DHT22;1687;49.540;8.574;2023-03-05T07:37:36;6.90;68.70
3348;DHT22;1687;49.540;8.574;2023-03-05T07:40:03;7.00;69.00
3348;DHT22;1687;49.540;8.574;2023-03-05T07:42:30;7.00;69.10
3348;DHT22;1687;49.540;8.574;2023-03-05T07:44:55;7.10;69.20
3348;DHT22;1687;49.540;8.574;2023-03-05T07:47:21;7.20;69.20
3348;DHT22;1687;49.540;8.574;2023-03-05T07:49:48;7.20;69.10
3348;DHT22;1687;49.540;8.574;2023-03-05T07:52:14;7.20;69.00
3348;DHT22;1687;49.540;8.574;2023-03-05T07:54:40;7.30;69.00
3348;DHT22;1687;49.540;8.574;2023-03-05T07:57:07;7.30;68.90
3348;DHT22;1687;49.540;8.574;2023-03-05T07:59:33;7.30;69.00
3348;DHT22;1687;49.540;8.574;2023-03-05T08:02:00;7.20;68.70
3348;DHT22;1687;49.540;8.574;2023-03-05T08:04:26;7.20;69.00
3348;DHT22;1687;49.540;8.574;2023-03-05T08:06:52;7.20;68.70
3348;DHT22;1687;49.540;8.574;2023-03-05T08:09:18;7.20;69.10
3348;DHT22;1687;49.540;8.574;2023-03-05T08:11:44;7.30;69.20
3348;DHT22;1687;49.540;8.574;2023-03-05T08:14:11;7.30;68.80
3348;DHT22;1687;49.540;8.574;2023-03-05T08:16:38;7.30;68.80
3348;DHT22;1687;49.540;8.574;2023-03-05T08:19:05;7.20;68.90
3348;DHT22;1687;49.540;8.574;2023-03-05T08:21:33;7.30;69.20
3348;DHT22;1687;49.540;8.574;2023-03-05T08:24:03;7.50;69.60
3348;DHT22;1687;49.540;8.574;2023-03-05T08:26:32;7.50;69.00
3348;DHT22;1687;49.540;8.574;2023-03-05T08:28:59;7.50;69.10
3348;DHT22;1687;49.540;8.574;2023-03-05T08:31:26;7.60;69.20
3348;DHT22;1687;49.540;8.574;2023-03-05T08:33:53;7.60;68.90
3348;DHT22;1687;49.540;8.574;2023-03-05T08:36:20;7.60;69.10
3348;DHT22;1687;49.540;8.574;2023-03-05T08:38:46;7.60;69.10
3348;DHT22;1687;49.540;8.574;2023-03-05T08:41:13;7.60;68.70
3348;DHT22;1687;49.540;8.574;2023-03-05T08:43:40;7.60;68.90
3348;DHT22;1687;49.540;8.574;2023-03-05T08:46:05;7.60;69.00
3348;DHT22;1687;49.540;8.574;2023-03-05T08:48:32;7.70;69.20
3348;DHT22;1687;49.540;8.574;2023-03-05T08:51:07;7.80;69.20
3348;DHT22;1687;49.540;8.574;2023-03-05T08:53:33;7.90;69.30
3348;DHT22;1687;49.540;8.574;2023-03-05T08:55:59;8.00;69.30
3348;DHT22;1687;49.540;8.574;2023-03-05T08:58:25;8.00;69.10
3348;DHT22;1687;49.540;8.574;2023-03-05T09:00:51;8.10;69.30
3348;DHT22;1687;49.540;8.574;2023-03-05T09:03:17;8.30;69.60
3348;DHT22;1687;49.540;8.574;2023-03-05T09:05:43;8.40;69.60
3348;DHT22;1687;49.540;8.574;2023-03-05T09:08:10;8.40;68.90
3348;DHT22;1687;49.540;8.574;2023-03-05T09:10:36;8.50;69.30
3348;DHT22;1687;49.540;8.574;2023-03-05T09:13:02;8.50;68.90
3348;DHT22;1687;49.540;8.574;2023-03-05T09:15:28;8.40;68.60
3348;DHT22;1687;49.540;8.574;2023-03-05T09:17:55;8.30;68.10
3348;DHT22;1687;49.540;8.574;2023-03-05T09:20:21;8.20;68.20
3348;DHT22;1687;49.540;8.574;2023-03-05T09:22:46;8.20;68.00
3348;DHT22;1687;49.540;8.574;2023-03-05T09:25:12;8.20;68.00
3348;DHT22;1687;49.540;8.574;2023-03-05T09:27:38;8.20;68.00
3348;DHT22;1687;49.540;8.574;2023-03-05T09:30:05;8.20;67.70
3348;DHT22;1687;49.540;8.574;2023-03-05T09:32:31;8.20;68.00
3348;DHT22;1687;49.540;8.574;2023-03-05T09:34:57;8.30;67.50
3348;DHT22;1687;49.540;8.574;2023-03-05T09:37:23;8.30;67.50
3348;DHT22;1687;49.540;8.574;2023-03-05T09:39:49;8.30;67.30
3348;DHT22;1687;49.540;8.574;2023-03-05T09:46:00;8.30;67.00
3348;DHT22;1687;49.540;8.574;2023-03-05T09:51:20;8.40;66.40
3348;DHT22;1687;49.540;8.574;2023-03-05T09:54:00;8.40;66.30
3348;DHT22;1687;49.540;8.574;2023-03-05T09:56:33;8.40;66.20
3348;DHT22;1687;49.540;8.574;2023-03-05T09:59:23;8.40;65.70
3348;DHT22;1687;49.540;8.574;2023-03-05T10:02:00;8.30;65.50
3348;DHT22;1687;49.540;8.574;2023-03-05T10:07:30;8.40;65.50
3348;DHT22;1687;49.540;8.574;2023-03-05T10:10:00;8.40;65.60
3348;DHT22;1687;49.540;8.574;2023-03-05T10:12:41;8.40;65.20
3348;DHT22;1687;49.540;8.574;2023-03-05T10:21:17;8.50;64.90
3348;DHT22;1687;49.540;8.574;2023-03-05T10:24:15;8.40;64.80
3348;DHT22;1687;49.540;8.574;2023-03-05T10:27:08;8.50;64.90
3348;DHT22;1687;49.540;8.574;2023-03-05T10:35:18;8.70;64.40
3348;DHT22;1687;49.540;8.574;2023-03-05T10:40:56;8.80;64.10
3348;DHT22;1687;49.540;8.574;2023-03-05T10:46:04;8.70;64.10
3348;DHT22;1687;49.540;8.574;2023-03-05T10:48:34;8.80;64.40
3348;DHT22;1687;49.540;8.574;2023-03-05T10:51:14;9.00;64.60
3348;DHT22;1687;49.540;8.574;2023-03-05T10:53:47;9.10;63.80
3348;DHT22;1687;49.540;8.574;2023-03-05T10:56:21;8.90;63.40
3348;DHT22;1687;49.540;8.574;2023-03-05T10:58:48;8.90;63.60
3348;DHT22;1687;49.540;8.574;2023-03-05T11:01:28;8.90;63.50
3348;DHT22;1687;49.540;8.574;2023-03-05T11:03:58;9.00;63.30
3348;DHT22;1687;49.540;8.574;2023-03-05T11:06:41;8.90;63.10
3348;DHT22;1687;49.540;8.574;2023-03-05T11:09:17;8.90;62.60
3348;DHT22;1687;49.540;8.574;2023-03-05T11:12:01;8.70;62.70
3348;DHT22;1687;49.540;8.574;2023-03-05T11:14:29;8.80;62.90
3348;DHT22;1687;49.540;8.574;2023-03-05T11:16:58;8.90;62.90
3348;DHT22;1687;49.540;8.574;2023-03-05T11:19:31;8.90;62.70
3348;DHT22;1687;49.540;8.574;2023-03-05T11:22:17;8.90;62.20
3348;DHT22;1687;49.540;8.574;2023-03-05T11:30:20;8.80;62.10
3348;DHT22;1687;49.540;8.574;2023-03-05T11:33:15;8.80;61.80
3348;DHT22;1687;49.540;8.574;2023-03-05T11:35:47;8.70;61.60
3348;DHT22;1687;49.540;8.574;2023-03-05T11:38:22;8.80;62.10
3348;DHT22;1687;49.540;8.574;2023-03-05T11:40:54;8.90;61.90
3348;DHT22;1687;49.540;8.574;2023-03-05T11:43:23;9.00;61.90
3348;DHT22;1687;49.540;8.574;2023-03-05T11:45:53;9.10;61.70
3348;DHT22;1687;49.540;8.574;2023-03-05T11:48:34;9.10;61.40
3348;DHT22;1687;49.540;8.574;2023-03-05T11:51:07;9.10;61.00
3348;DHT22;1687;49.540;8.574;2023-03-05T11:53:38;9.00;60.80
3348;DHT22;1687;49.540;8.574;2023-03-05T11:56:23;9.00;60.90
3348;DHT22;1687;49.540;8.574;2023-03-05T12:01:47;8.70;60.40
3348;DHT22;1687;49.540;8.574;2023-03-05T12:04:15;8.70;60.40
3348;DHT22;1687;49.540;8.574;2023-03-05T12:06:48;8.70;60.70
3348;DHT22;1687;49.540;8.574;2023-03-05T12:09:39;8.90;60.90
3348;DHT22;1687;49.540;8.574;2023-03-05T12:12:11;9.00;60.70
3348;DHT22;1687;49.540;8.574;2023-03-05T12:23:57;8.80;60.10
3348;DHT22;1687;49.540;8.574;2023-03-05T12:29:38;8.70;59.60
3348;DHT22;1687;49.540;8.574;2023-03-05T12:35:04;8.40;59.40
3348;DHT22;1687;49.540;8.574;2023-03-05T12:43:00;8.50;59.70
3348;DHT22;1687;49.540;8.574;2023-03-05T12:45:38;8.40;59.20
3348;DHT22;1687;49.540;8.574;2023-03-05T12:53:13;8.40;59.70
3348;DHT22;1687;49.540;8.574;2023-03-05T12:58:17;8.30;59.30
3348;DHT22;1687;49.540;8.574;2023-03-05T13:03:42;8.50;59.50
3348;DHT22;1687;49.540;8.574;2023-03-05T13:06:42;8.40;59.30
3348;DHT22;1687;49.540;8.574;2023-03-05T13:09:24;8.50;59.60
3348;DHT22;1687;49.540;8.574;2023-03-05T13:11:56;8.60;59.70
3348;DHT22;1687;49.540;8.574;2023-03-05T13:14:42;8.70;59.70
3348;DHT22;1687;49.540;8.574;2023-03-05T13:17:33;8.70;59.40
3348;DHT22;1687;49.540;8.574;2023-03-05T13:20:02;8.50;59.00
3348;DHT22;1687;49.540;8.574;2023-03-05T13:28:43;8.30;59.40
3348;DHT22;1687;49.540;8.574;2023-03-05T13:31:15;8.40;59.50
3348;DHT22;1687;49.540;8.574;2023-03-05T13:33:55;8.50;59.60
3348;DHT22;1687;49.540;8.574;2023-03-05T13:36:24;8.50;59.40
3348;DHT22;1687;49.540;8.574;2023-03-05T13:38:50;8.50;59.20
3348;DHT22;1687;49.540;8.574;2023-03-05T13:41:21;8.40;59.10
3348;DHT22;1687;49.540;8.574;2023-03-05T13:46:31;8.40;59.40
3348;DHT22;1687;49.540;8.574;2023-03-05T13:49:25;8.40;59.20
3348;DHT22;1687;49.540;8.574;2023-03-05T13:51:54;8.30;59.00
3348;DHT22;1687;49.540;8.574;2023-03-05T13:54:22;8.30;59.10
3348;DHT22;1687;49.540;8.574;2023-03-05T13:57:29;8.30;59.20
3348;DHT22;1687;49.540;8.574;2023-03-05T13:59:58;8.30;59.10
3348;DHT22;1687;49.540;8.574;2023-03-05T14:02:26;8.30;59.20
3348;DHT22;1687;49.540;8.574;2023-03-05T14:04:53;8.30;59.10
3348;DHT22;1687;49.540;8.574;2023-03-05T14:09:47;8.40;59.30
3348;DHT22;1687;49.540;8.574;2023-03-05T14:15:00;8.20;59.10
3348;DHT22;1687;49.540;8.574;2023-03-05T14:22:40;8.20;59.40
3348;DHT22;1687;49.540;8.574;2023-03-05T14:28:05;8.30;59.20
3348;DHT22;1687;49.540;8.574;2023-03-05T14:30:33;8.30;59.30
3348;DHT22;1687;49.540;8.574;2023-03-05T14:33:01;8.30;59.40
3348;DHT22;1687;49.540;8.574;2023-03-05T14:35:27;8.30;59.40
3348;DHT22;1687;49.540;8.574;2023-03-05T14:37:55;8.30;59.40
3348;DHT22;1687;49.540;8.574;2023-03-05T14:40:29;8.40;59.50
3348;DHT22;1687;49.540;8.574;2023-03-05T14:43:03;8.40;59.40
3348;DHT22;1687;49.540;8.574;2023-03-05T14:45:31;8.30;59.20
3348;DHT22;1687;49.540;8.574;2023-03-05T14:47:59;8.30;59.30
3348;DHT22;1687;49.540;8.574;2023-03-05T14:50:37;8.30;59.40
3348;DHT22;1687;49.540;8.574;2023-03-05T14:53:08;8.40;59.60
3348;DHT22;1687;49.540;8.574;2023-03-05T14:55:39;8.40;59.50
3348;DHT22;1687;49.540;8.574;2023-03-05T14:58:13;8.30;59.20
3348;DHT22;1687;49.540;8.574;2023-03-05T15:00:40;8.20;59.10
3348;DHT22;1687;49.540;8.574;2023-03-05T15:03:10;8.20;59.30
3348;DHT22;1687;49.540;8.574;2023-03-05T15:05:37;8.30;59.60
3348;DHT22;1687;49.540;8.574;2023-03-05T15:08:03;8.30;59.60
3348;DHT22;1687;49.540;8.574;2023-03-05T15:10:29;8.40;59.40
3348;DHT22;1687;49.540;8.574;2023-03-05T15:12:55;8.50;59.50
3348;DHT22;1687;49.540;8.574;2023-03-05T15:15:21;8.50;59.40
3348;DHT22;1687;49.540;8.574;2023-03-05T15:17:49;8.60;59.50
3348;DHT22;1687;49.540;8.574;2023-03-05T15:20:25;8.70;59.60
3348;DHT22;1687;49.540;8.574;2023-03-05T15:22:52;8.70;59.40
3348;DHT22;1687;49.540;8.574;2023-03-05T15:25:20;8.80;59.50
3348;DHT22;1687;49.540;8.574;2023-03-05T15:27:47;8.80;59.40
3348;DHT22;1687;49.540;8.574;2023-03-05T15:30:28;8.80;59.50
3348;DHT22;1687;49.540;8.574;2023-03-05T15:32:56;8.80;59.30
3348;DHT22;1687;49.540;8.574;2023-03-05T15:35:24;8.70;59.20
3348;DHT22;1687;49.540;8.574;2023-03-05T15:37:50;8.70;59.50
3348;DHT22;1687;49.540;8.574;2023-03-05T15:40:19;8.80;59.60
3348;DHT22;1687;49.540;8.574;2023-03-05T15:42:45;8.80;59.40
3348;DHT22;1687;49.540;8.574;2023-03-05T15:45:13;8.80;59.20
3348;DHT22;1687;49.540;8.574;2023-03-05T15:47:39;8.70;59.10
3348;DHT22;1687;49.540;8.574;2023-03-05T15:50:06;8.60;59.00
3348;DHT22;1687;49.540;8.574;2023-03-05T15:52:32;8.50;59.10
3348;DHT22;1687;49.540;8.574;2023-03-05T15:54:59;8.60;59.50
3348;DHT22;1687;49.540;8.574;2023-03-05T15:57:25;8.70;59.40
3348;DHT22;1687;49.540;8.574;2023-03-05T15:59:52;8.70;59.10
3348;DHT22;1687;49.540;8.574;2023-03-05T16:02:18;8.60;59.00
3348;DHT22;1687;49.540;8.574;2023-03-05T16:04:44;8.60;59.20
3348;DHT22;1687;49.540;8.574;2023-03-05T16:07:11;8.60;59.10
3348;DHT22;1687;49.540;8.574;2023-03-05T16:09:41;8.50;59.00
3348;DHT22;1687;49.540;8.574;2023-03-05T16:12:13;8.50;59.10
3348;DHT22;1687;49.540;8.574;2023-03-05T16:14:43;8.60;59.30
3348;DHT22;1687;49.540;8.574;2023-03-05T16:17:09;8.50;58.90
3348;DHT22;1687;49.540;8.574;2023-03-05T16:19:39;8.40;58.80
3348;DHT22;1687;49.540;8.574;2023-03-05T16:22:07;8.30;58.90
3348;DHT22;1687;49.540;8.574;2023-03-05T16:24:32;8.40;59.20
3348;DHT22;1687;49.540;8.574;2023-03-05T16:26:58;8.50;59.20
3348;DHT22;1687;49.540;8.574;2023-03-05T16:29:24;8.50;59.10
3348;DHT22;1687;49.540;8.574;2023-03-05T16:31:53;8.50;59.10
3348;DHT22;1687;49.540;8.574;2023-03-05T16:34:19;8.50;59.20
3348;DHT22;1687;49.540;8.574;2023-03-05T16:36:49;8.50;59.20
3348;DHT22;1687;49.540;8.574;2023-03-05T16:39:20;8.50;59.00
3348;DHT22;1687;49.540;8.574;2023-03-05T16:41:46;8.60;59.20
3348;DHT22;1687;49.540;8.574;2023-03-05T16:44:12;8.50;59.00
3348;DHT22;1687;49.540;8.574;2023-03-05T16:46:38;8.50;59.00
3348;DHT22;1687;49.540;8.574;2023-03-05T16:49:07;8.50;59.00
3348;DHT22;1687;49.540;8.574;2023-03-05T16:51:33;8.50;59.10
3348;DHT22;1687;49.540;8.574;2023-03-05T16:53:59;8.50;59.10
3348;DHT22;1687;49.540;8.574;2023-03-05T16:56:25;8.50;59.00
3348;DHT22;1687;49.540;8.574;2023-03-05T16:58:54;8.50;59.00
3348;DHT22;1687;49.540;8.574;2023-03-05T17:01:20;8.40;58.90
3348;DHT22;1687;49.540;8.574;2023-03-05T17:03:47;8.40;59.00
3348;DHT22;1687;49.540;8.574;2023-03-05T17:06:23;8.50;59.10
3348;DHT22;1687;49.540;8.574;2023-03-05T17:08:51;8.40;58.90
3348;DHT22;1687;49.540;8.574;2023-03-05T17:11:17;8.40;59.00
3348;DHT22;1687;49.540;8.574;2023-03-05T17:13:43;8.40;59.00
3348;DHT22;1687;49.540;8.574;2023-03-05T17:16:11;8.40;59.00
3348;DHT22;1687;49.540;8.574;2023-03-05T17:18:38;8.50;59.10
3348;DHT22;1687;49.540;8.574;2023-03-05T17:21:05;8.40;58.80
3348;DHT22;1687;49.540;8.574;2023-03-05T17:23:32;8.40;59.00
3348;DHT22;1687;49.540;8.574;2023-03-05T17:26:02;8.40;59.00
3348;DHT22;1687;49.540;8.574;2023-03-05T17:28:32;8.50;59.20
3348;DHT22;1687;49.540;8.574;2023-03-05T17:30:58;8.40;59.10
3348;DHT22;1687;49.540;8.574;2023-03-05T17:33:26;8.50;59.10
3348;DHT22;1687;49.540;8.574;2023-03-05T17:35:53;8.50;59.00
3348;DHT22;1687;49.540;8.574;2023-03-05T17:38:19;8.50;59.00
3348;DHT22;1687;49.540;8.574;2023-03-05T17:40:45;8.40;58.90
3348;DHT22;1687;49.540;8.574;2023-03-05T17:43:10;8.40;59.00
3348;DHT22;1687;49.540;8.574;2023-03-05T17:45:36;8.40;58.90
3348;DHT22;1687;49.540;8.574;2023-03-05T17:48:02;8.40;59.00
3348;DHT22;1687;49.540;8.574;2023-03-05T17:50:28;8.30;59.00
3348;DHT22;1687;49.540;8.574;2023-03-05T17:52:53;8.30;58.90
3348;DHT22;1687;49.540;8.574;2023-03-05T17:55:19;8.40;59.10
3348;DHT22;1687;49.540;8.574;2023-03-05T17:57:48;8.30;58.80
3348;DHT22;1687;49.540;8.574;2023-03-05T18:00:20;8.10;58.20